Crestview, FL

4:44 PM CDT on August 27, 2015 (GMT -0500)
Sikes | | Change Station
CLOSE
Current Station
Airport
Location: Crestview,
Elevation: 213 ft
Nearby Weather Stations

Elev 213 ft 30.78 °N, 86.52 °W | Updated 51 minutes ago

Clear
Clear
92 °F
Feels Like 92 °F
N
7
Wind Variable Wind from NE

Today
High -- | Low -- °F
--% Chance of Precip.
Yesterday
High -- | Low -- °F
Precip. -- in
6:19 AM 7:15 PM
Waxing Gibbous, 95% visible
Pressure 29.92 in
Visibility 10.0 miles
Clouds Clear
Heat Index 92 °F
Dew Point 60 °F
Humidity 34%
Rainfall 0.00 in
Snow Depth Not available.
UV 6 out of 12
Pollen 7.40 out of 12
Air Quality Not available.
Flu Activity Not available.
METAR KCEW 272053Z AUTO 04006KT 10SM CLR 33/16 A2992 RMK AO2 SLP130 T03330156 56015
Pressure 29.92 in
Visibility 10.0 miles
Clouds Clear
Heat Index 92 °F
Dew Point 60 °F
Humidity 34%
Rainfall 0.00 in
Snow Depth Not available.
UV 6 out of 12
Pollen 7.40 out of 12
Air Quality Not available.
Flu Activity Not available.
METAR KCEW 272053Z AUTO 04006KT 10SM CLR 33/16 A2992 RMK AO2 SLP130 T03330156 56015

10-Day Weather Forecast

×

Almanac

Astronomy

Aug. 27, 2015 Rise Set
Actual Time
Civil Twilight
Nautical Twilight
Astronomical Twilight
Moon
Length of Visible Light
Length of Day
Tomorrow will be .
, % of the Moon is Illuminated

Today's Extremes

State Highs State Lows

Community

WunderPhotos

Upload Photos

1,850,238 photos uploaded!

WunderBlogs® & News

Nearby

Air Quality

  Air Quality AQ Index Pollutant
Not available.

Snow Depth

Station Depth Elevation

Earthquake Activity

City Distance Mag. Time & Date
Minimum magnitude displayed is 2.5.

Coastal Water Temperatures

Place Temperature

Stations

Nearby Weather Stations

Station Location Temp. Windchill Dew Point Humidity Wind Precip. Elev Updated Type